sensor_id;sensor_type;location;lat;lon;timestamp;pressure;altitude;pressure_sealevel;temperature;humidity
53340;BME280;46212;50.258;19.062;2023-11-18T00:02:19;98515.66;;;3.56;98.74
53340;BME280;46212;50.258;19.062;2023-11-18T00:04:44;98519.88;;;3.64;98.33
53340;BME280;46212;50.258;19.062;2023-11-18T00:07:09;98525.81;;;3.55;98.47
53340;BME280;46212;50.258;19.062;2023-11-18T00:09:35;98521.25;;;3.49;99.42
53340;BME280;46212;50.258;19.062;2023-11-18T00:12:00;98524.84;;;3.69;99.45
53340;BME280;46212;50.258;19.062;2023-11-18T00:14:26;98525.22;;;3.71;98.55
53340;BME280;46212;50.258;19.062;2023-11-18T00:16:51;98521.34;;;3.68;98.40
53340;BME280;46212;50.258;19.062;2023-11-18T00:19:17;98531.78;;;3.77;98.75
53340;BME280;46212;50.258;19.062;2023-11-18T00:21:42;98523.25;;;3.71;98.24
53340;BME280;46212;50.258;19.062;2023-11-18T00:24:09;98516.69;;;3.65;97.76
53340;BME280;46212;50.258;19.062;2023-11-18T00:26:34;98527.84;;;3.51;98.75
53340;BME280;46212;50.258;19.062;2023-11-18T00:29:00;98531.59;;;3.61;98.96
53340;BME280;46212;50.258;19.062;2023-11-18T00:31:28;98528.16;;;3.57;99.25
53340;BME280;46212;50.258;19.062;2023-11-18T00:33:54;98529.97;;;3.67;98.82
53340;BME280;46212;50.258;19.062;2023-11-18T00:36:20;98535.91;;;3.58;99.13
53340;BME280;46212;50.258;19.062;2023-11-18T00:38:45;98521.38;;;3.65;98.65
53340;BME280;46212;50.258;19.062;2023-11-18T00:41:11;98542.31;;;3.75;98.33
53340;BME280;46212;50.258;19.062;2023-11-18T00:43:37;98542.19;;;3.86;98.41
53340;BME280;46212;50.258;19.062;2023-11-18T00:46:03;98536.72;;;3.55;98.73
53340;BME280;46212;50.258;19.062;2023-11-18T00:48:30;98546.25;;;3.74;99.14
53340;BME280;46212;50.258;19.062;2023-11-18T00:50:55;98534.50;;;3.77;98.91
53340;BME280;46212;50.258;19.062;2023-11-18T00:53:21;98546.50;;;3.83;99.05
53340;BME280;46212;50.258;19.062;2023-11-18T00:55:47;98546.38;;;3.90;99.49
53340;BME280;46212;50.258;19.062;2023-11-18T00:58:12;98540.88;;;3.94;98.19
53340;BME280;46212;50.258;19.062;2023-11-18T01:00:38;98525.22;;;3.71;98.54
53340;BME280;46212;50.258;19.062;2023-11-18T01:03:04;98525.06;;;3.82;98.47
53340;BME280;46212;50.258;19.062;2023-11-18T01:05:29;98534.59;;;3.97;98.61
53340;BME280;46212;50.258;19.062;2023-11-18T01:07:56;98538.63;;;3.89;98.08
53340;BME280;46212;50.258;19.062;2023-11-18T01:10:22;98530.94;;;3.80;98.07
53340;BME280;46212;50.258;19.062;2023-11-18T01:12:48;98536.84;;;3.75;98.99
53340;BME280;46212;50.258;19.062;2023-11-18T01:15:13;98534.69;;;3.63;99.67
53340;BME280;46212;50.258;19.062;2023-11-18T01:17:39;98523.00;;;3.62;99.90
53340;BME280;46212;50.258;19.062;2023-11-18T01:20:06;98527.13;;;3.74;99.49
53340;BME280;46212;50.258;19.062;2023-11-18T01:22:37;98528.03;;;3.91;99.50
53340;BME280;46212;50.258;19.062;2023-11-18T01:25:03;98522.69;;;3.84;98.58
53340;BME280;46212;50.258;19.062;2023-11-18T01:27:28;98524.31;;;3.78;99.13
53340;BME280;46212;50.258;19.062;2023-11-18T01:29:54;98531.56;;;3.91;98.51
53340;BME280;46212;50.258;19.062;2023-11-18T01:32:19;98525.75;;;3.89;98.50
53340;BME280;46212;50.258;19.062;2023-11-18T01:34:45;98504.03;;;3.79;98.79
53340;BME280;46212;50.258;19.062;2023-11-18T01:37:16;98517.28;;;3.80;98.61
53340;BME280;46212;50.258;19.062;2023-11-18T01:39:41;98524.09;;;3.95;97.89
53340;BME280;46212;50.258;19.062;2023-11-18T01:42:07;98524.41;;;3.74;98.60
53340;BME280;46212;50.258;19.062;2023-11-18T01:44:32;98516.69;;;3.65;99.28
53340;BME280;46212;50.258;19.062;2023-11-18T01:47:01;98518.72;;;3.61;99.06
53340;BME280;46212;50.258;19.062;2023-11-18T01:49:32;98508.41;;;3.72;99.08
53340;BME280;46212;50.258;19.062;2023-11-18T01:52:00;98506.91;;;3.68;99.08
53340;BME280;46212;50.258;19.062;2023-11-18T01:54:27;98501.81;;;3.70;98.61
53340;BME280;46212;50.258;19.062;2023-11-18T01:56:53;98513.72;;;3.83;98.16
53340;BME280;46212;50.258;19.062;2023-11-18T01:59:20;98522.91;;;3.69;98.04
53340;BME280;46212;50.258;19.062;2023-11-18T02:01:50;98520.91;;;3.73;98.12
53340;BME280;46212;50.258;19.062;2023-11-18T02:04:18;98521.25;;;3.75;97.95
53340;BME280;46212;50.258;19.062;2023-11-18T02:06:45;98523.38;;;3.64;98.38
53340;BME280;46212;50.258;19.062;2023-11-18T02:09:20;98517.34;;;3.77;98.13
53340;BME280;46212;50.258;19.062;2023-11-18T02:11:57;98513.53;;;3.70;98.10
53340;BME280;46212;50.258;19.062;2023-11-18T02:14:26;98510.31;;;3.75;97.82
53340;BME280;46212;50.258;19.062;2023-11-18T02:16:55;98524.72;;;3.80;98.35
53340;BME280;46212;50.258;19.062;2023-11-18T02:19:24;98533.63;;;3.84;97.52
53340;BME280;46212;50.258;19.062;2023-11-18T02:21:50;98537.78;;;3.65;97.00
53340;BME280;46212;50.258;19.062;2023-11-18T02:24:31;98528.63;;;3.52;97.42
53340;BME280;46212;50.258;19.062;2023-11-18T02:27:03;98534.16;;;3.45;97.74
53340;BME280;46212;50.258;19.062;2023-11-18T02:29:35;98541.91;;;3.46;97.62
53340;BME280;46212;50.258;19.062;2023-11-18T02:32:42;98537.19;;;3.50;98.06
53340;BME280;46212;50.258;19.062;2023-11-18T02:37:31;98543.75;;;3.56;97.49
53340;BME280;46212;50.258;19.062;2023-11-18T02:40:00;98539.88;;;3.81;96.86
53340;BME280;46212;50.258;19.062;2023-11-18T02:42:29;98543.31;;;3.61;96.74
53340;BME280;46212;50.258;19.062;2023-11-18T02:44:55;98541.66;;;3.67;96.92
53340;BME280;46212;50.258;19.062;2023-11-18T02:47:25;98539.66;;;3.41;97.63
53340;BME280;46212;50.258;19.062;2023-11-18T02:49:54;98548.66;;;3.38;98.86
53340;BME280;46212;50.258;19.062;2023-11-18T02:52:31;98552.97;;;3.39;98.82
53340;BME280;46212;50.258;19.062;2023-11-18T02:54:58;98557.16;;;3.44;98.81
53340;BME280;46212;50.258;19.062;2023-11-18T02:57:24;98547.06;;;3.41;98.78
53340;BME280;46212;50.258;19.062;2023-11-18T02:59:49;98555.31;;;3.37;99.43
53340;BME280;46212;50.258;19.062;2023-11-18T03:02:15;98542.75;;;3.43;99.74
53340;BME280;46212;50.258;19.062;2023-11-18T03:04:40;98549.69;;;3.51;99.51
53340;BME280;46212;50.258;19.062;2023-11-18T03:07:10;98553.88;;;3.56;99.19
53340;BME280;46212;50.258;19.062;2023-11-18T03:09:35;98562.78;;;3.63;99.22
53340;BME280;46212;50.258;19.062;2023-11-18T03:12:02;98561.63;;;3.61;99.45
53340;BME280;46212;50.258;19.062;2023-11-18T03:14:27;98564.16;;;3.75;99.10
53340;BME280;46212;50.258;19.062;2023-11-18T03:16:53;98562.31;;;3.68;98.56
53340;BME280;46212;50.258;19.062;2023-11-18T03:19:20;98570.22;;;3.59;99.12
53340;BME280;46212;50.258;19.062;2023-11-18T03:21:51;98556.53;;;3.63;99.05
53340;BME280;46212;50.258;19.062;2023-11-18T03:24:18;98565.19;;;3.58;99.81
53340;BME280;46212;50.258;19.062;2023-11-18T03:26:43;98564.25;;;3.68;99.34
53340;BME280;46212;50.258;19.062;2023-11-18T03:29:09;98572.53;;;3.64;99.74
53340;BME280;46212;50.258;19.062;2023-11-18T03:31:36;98574.47;;;3.64;99.83
53340;BME280;46212;50.258;19.062;2023-11-18T03:34:02;98559.91;;;3.74;98.59
53340;BME280;46212;50.258;19.062;2023-11-18T03:36:27;98564.91;;;3.79;99.38
53340;BME280;46212;50.258;19.062;2023-11-18T03:38:53;98567.31;;;3.73;99.23
53340;BME280;46212;50.258;19.062;2023-11-18T03:41:18;98557.00;;;3.58;99.17
53340;BME280;46212;50.258;19.062;2023-11-18T03:43:44;98571.66;;;3.71;99.45
53340;BME280;46212;50.258;19.062;2023-11-18T03:46:10;98574.66;;;3.50;100.00
53340;BME280;46212;50.258;19.062;2023-11-18T03:48:36;98571.47;;;3.55;100.00
53340;BME280;46212;50.258;19.062;2023-11-18T03:51:02;98568.19;;;3.67;100.00
53340;BME280;46212;50.258;19.062;2023-11-18T03:53:28;98582.19;;;3.69;100.00
53340;BME280;46212;50.258;19.062;2023-11-18T03:55:54;98573.28;;;3.65;100.00
53340;BME280;46212;50.258;19.062;2023-11-18T03:58:19;98576.97;;;3.82;99.78
53340;BME280;46212;50.258;19.062;2023-11-18T04:00:44;98583.97;;;3.83;100.00
53340;BME280;46212;50.258;19.062;2023-11-18T04:03:10;98580.59;;;3.71;100.00
53340;BME280;46212;50.258;19.062;2023-11-18T04:05:35;98593.84;;;3.73;100.00
53340;BME280;46212;50.258;19.062;2023-11-18T04:08:02;98596.84;;;3.82;100.00
53340;BME280;46212;50.258;19.062;2023-11-18T04:10:28;98583.94;;;3.56;100.00
53340;BME280;46212;50.258;19.062;2023-11-18T04:12:53;98591.47;;;3.75;100.00
53340;BME280;46212;50.258;19.062;2023-11-18T04:15:18;98579.34;;;3.80;100.00
53340;BME280;46212;50.258;19.062;2023-11-18T04:17:44;98591.03;;;3.80;100.00
53340;BME280;46212;50.258;19.062;2023-11-18T04:20:10;98598.19;;;3.70;99.73
53340;BME280;46212;50.258;19.062;2023-11-18T04:22:43;98600.16;;;3.70;100.00
53340;BME280;46212;50.258;19.062;2023-11-18T04:25:11;98611.38;;;3.75;100.00
53340;BME280;46212;50.258;19.062;2023-11-18T04:27:40;98598.53;;;3.72;99.98
53340;BME280;46212;50.258;19.062;2023-11-18T04:30:06;98607.41;;;3.50;100.00
53340;BME280;46212;50.258;19.062;2023-11-18T04:32:33;98601.94;;;3.50;100.00
53340;BME280;46212;50.258;19.062;2023-11-18T04:34:59;98600.41;;;3.49;100.00
53340;BME280;46212;50.258;19.062;2023-11-18T04:37:25;98596.91;;;3.48;100.00
53340;BME280;46212;50.258;19.062;2023-11-18T04:39:51;98594.19;;;3.48;100.00
53340;BME280;46212;50.258;19.062;2023-11-18T04:42:17;98594.97;;;3.49;100.00
53340;BME280;46212;50.258;19.062;2023-11-18T04:44:43;98590.63;;;3.51;100.00
53340;BME280;46212;50.258;19.062;2023-11-18T04:47:09;98592.13;;;3.56;100.00
53340;BME280;46212;50.258;19.062;2023-11-18T04:49:36;98597.13;;;3.61;100.00
53340;BME280;46212;50.258;19.062;2023-11-18T04:52:01;98603.47;;;3.54;100.00
53340;BME280;46212;50.258;19.062;2023-11-18T04:54:26;98594.84;;;3.56;100.00
53340;BME280;46212;50.258;19.062;2023-11-18T04:56:52;98591.44;;;3.48;100.00
53340;BME280;46212;50.258;19.062;2023-11-18T04:59:17;98595.69;;;3.49;100.00
53340;BME280;46212;50.258;19.062;2023-11-18T05:01:43;98598.72;;;3.58;100.00
53340;BME280;46212;50.258;19.062;2023-11-18T05:04:09;98589.50;;;3.49;100.00
53340;BME280;46212;50.258;19.062;2023-11-18T05:06:34;98590.25;;;3.49;100.00
53340;BME280;46212;50.258;19.062;2023-11-18T05:09:00;98596.25;;;3.71;100.00
53340;BME280;46212;50.258;19.062;2023-11-18T05:11:25;98599.03;;;3.94;98.37
53340;BME280;46212;50.258;19.062;2023-11-18T05:13:50;98597.00;;;3.71;98.97
53340;BME280;46212;50.258;19.062;2023-11-18T05:16:16;98605.19;;;4.02;98.22
53340;BME280;46212;50.258;19.062;2023-11-18T05:18:41;98602.41;;;4.05;97.83
53340;BME280;46212;50.258;19.062;2023-11-18T05:21:06;98613.19;;;3.86;98.42
53340;BME280;46212;50.258;19.062;2023-11-18T05:23:35;98612.16;;;3.76;98.82
53340;BME280;46212;50.258;19.062;2023-11-18T05:26:01;98607.69;;;3.89;99.09
53340;BME280;46212;50.258;19.062;2023-11-18T05:28:28;98596.81;;;4.12;96.90
53340;BME280;46212;50.258;19.062;2023-11-18T05:30:55;98612.25;;;3.99;97.14
53340;BME280;46212;50.258;19.062;2023-11-18T05:33:23;98610.13;;;3.84;98.36
53340;BME280;46212;50.258;19.062;2023-11-18T05:35:48;98613.28;;;3.79;98.18
53340;BME280;46212;50.258;19.062;2023-11-18T05:38:18;98614.66;;;3.63;99.49
53340;BME280;46212;50.258;19.062;2023-11-18T05:40:44;98621.56;;;3.71;99.82
53340;BME280;46212;50.258;19.062;2023-11-18T05:43:21;98616.22;;;3.64;99.73
53340;BME280;46212;50.258;19.062;2023-11-18T05:45:47;98622.78;;;3.70;99.76
53340;BME280;46212;50.258;19.062;2023-11-18T05:48:31;98625.31;;;3.85;99.73
53340;BME280;46212;50.258;19.062;2023-11-18T05:50:57;98630.56;;;3.68;99.51
53340;BME280;46212;50.258;19.062;2023-11-18T05:53:22;98627.31;;;3.81;99.07
53340;BME280;46212;50.258;19.062;2023-11-18T05:55:47;98636.78;;;3.72;99.01
53340;BME280;46212;50.258;19.062;2023-11-18T05:58:13;98642.91;;;3.84;98.52
53340;BME280;46212;50.258;19.062;2023-11-18T06:00:38;98631.78;;;3.67;97.96
53340;BME280;46212;50.258;19.062;2023-11-18T06:03:04;98653.91;;;3.77;96.59
53340;BME280;46212;50.258;19.062;2023-11-18T06:05:30;98651.34;;;3.62;96.59
53340;BME280;46212;50.258;19.062;2023-11-18T06:07:56;98658.22;;;3.74;95.98
53340;BME280;46212;50.258;19.062;2023-11-18T06:10:24;98665.34;;;3.31;97.58
53340;BME280;46212;50.258;19.062;2023-11-18T06:12:50;98661.09;;;3.26;97.99
53340;BME280;46212;50.258;19.062;2023-11-18T06:15:16;98665.00;;;3.25;98.70
53340;BME280;46212;50.258;19.062;2023-11-18T06:17:44;98672.28;;;3.39;97.21
53340;BME280;46212;50.258;19.062;2023-11-18T06:20:09;98670.28;;;3.43;97.77
53340;BME280;46212;50.258;19.062;2023-11-18T06:22:35;98681.00;;;3.60;96.43
53340;BME280;46212;50.258;19.062;2023-11-18T06:25:01;98678.03;;;3.48;96.26
53340;BME280;46212;50.258;19.062;2023-11-18T06:27:27;98685.94;;;3.39;96.69
53340;BME280;46212;50.258;19.062;2023-11-18T06:29:53;98694.53;;;3.34;96.85
53340;BME280;46212;50.258;19.062;2023-11-18T06:32:20;98693.56;;;3.17;97.70
53340;BME280;46212;50.258;19.062;2023-11-18T06:34:45;98692.41;;;3.11;97.32
53340;BME280;46212;50.258;19.062;2023-11-18T06:37:10;98697.22;;;2.96;96.53
53340;BME280;46212;50.258;19.062;2023-11-18T06:39:41;98709.25;;;3.02;97.01
53340;BME280;46212;50.258;19.062;2023-11-18T06:42:09;98699.66;;;2.87;97.72
53340;BME280;46212;50.258;19.062;2023-11-18T06:44:37;98712.53;;;2.83;97.42
53340;BME280;46212;50.258;19.062;2023-11-18T06:47:02;98706.38;;;2.76;97.78
53340;BME280;46212;50.258;19.062;2023-11-18T06:49:30;98718.81;;;2.77;98.58
53340;BME280;46212;50.258;19.062;2023-11-18T06:51:56;98734.75;;;2.82;98.58
53340;BME280;46212;50.258;19.062;2023-11-18T06:54:22;98735.94;;;2.81;98.22
53340;BME280;46212;50.258;19.062;2023-11-18T06:56:49;98731.72;;;2.73;98.82
53340;BME280;46212;50.258;19.062;2023-11-18T06:59:16;98740.94;;;2.86;99.33
53340;BME280;46212;50.258;19.062;2023-11-18T07:01:42;98735.75;;;3.02;98.85
53340;BME280;46212;50.258;19.062;2023-11-18T07:04:10;98750.53;;;3.08;97.69
53340;BME280;46212;50.258;19.062;2023-11-18T07:06:36;98752.09;;;3.09;97.54
53340;BME280;46212;50.258;19.062;2023-11-18T07:09:08;98749.63;;;3.21;97.28
53340;BME280;46212;50.258;19.062;2023-11-18T07:11:46;98747.66;;;3.26;97.17
53340;BME280;46212;50.258;19.062;2023-11-18T07:14:12;98755.84;;;3.26;96.44
53340;BME280;46212;50.258;19.062;2023-11-18T07:16:39;98753.59;;;3.17;96.66
53340;BME280;46212;50.258;19.062;2023-11-18T07:19:05;98753.53;;;3.20;96.77
53340;BME280;46212;50.258;19.062;2023-11-18T07:21:31;98754.69;;;3.27;95.87
53340;BME280;46212;50.258;19.062;2023-11-18T07:23:56;98761.03;;;3.09;96.11
53340;BME280;46212;50.258;19.062;2023-11-18T07:26:22;98743.84;;;3.16;96.51
53340;BME280;46212;50.258;19.062;2023-11-18T07:28:49;98750.13;;;3.54;96.20
53340;BME280;46212;50.258;19.062;2023-11-18T07:31:14;98747.38;;;3.57;95.81
53340;BME280;46212;50.258;19.062;2023-11-18T07:33:44;98752.41;;;3.59;96.03
53340;BME280;46212;50.258;19.062;2023-11-18T07:36:14;98753.88;;;3.70;95.97
53340;BME280;46212;50.258;19.062;2023-11-18T07:38:40;98752.19;;;3.80;94.29
53340;BME280;46212;50.258;19.062;2023-11-18T07:41:06;98747.59;;;3.73;94.21
53340;BME280;46212;50.258;19.062;2023-11-18T07:43:34;98754.50;;;3.82;94.41
53340;BME280;46212;50.258;19.062;2023-11-18T07:46:01;98749.81;;;3.82;94.27
53340;BME280;46212;50.258;19.062;2023-11-18T07:48:27;98752.34;;;4.00;93.19
53340;BME280;46212;50.258;19.062;2023-11-18T07:50:53;98760.44;;;4.10;92.80
53340;BME280;46212;50.258;19.062;2023-11-18T07:53:18;98757.78;;;4.03;91.83
53340;BME280;46212;50.258;19.062;2023-11-18T07:55:44;98754.75;;;3.94;92.14
53340;BME280;46212;50.258;19.062;2023-11-18T07:58:10;98754.94;;;3.80;93.12
53340;BME280;46212;50.258;19.062;2023-11-18T08:00:43;98756.06;;;3.83;93.97
53340;BME280;46212;50.258;19.062;2023-11-18T08:03:10;98754.50;;;3.82;93.90
53340;BME280;46212;50.258;19.062;2023-11-18T08:05:39;98753.13;;;3.66;93.45
53340;BME280;46212;50.258;19.062;2023-11-18T08:08:08;98759.06;;;3.58;93.74
53340;BME280;46212;50.258;19.062;2023-11-18T08:10:37;98772.31;;;3.56;93.86
53340;BME280;46212;50.258;19.062;2023-11-18T08:13:04;98768.78;;;3.59;94.39
53340;BME280;46212;50.258;19.062;2023-11-18T08:15:32;98772.00;;;3.50;94.39
53340;BME280;46212;50.258;19.062;2023-11-18T08:17:57;98771.41;;;3.69;94.42
53340;BME280;46212;50.258;19.062;2023-11-18T08:20:22;98779.31;;;3.60;95.04
53340;BME280;46212;50.258;19.062;2023-11-18T08:22:50;98775.94;;;3.46;94.32
53340;BME280;46212;50.258;19.062;2023-11-18T08:25:15;98780.72;;;3.35;94.83
53340;BME280;46212;50.258;19.062;2023-11-18T08:27:45;98794.84;;;3.26;94.95
53340;BME280;46212;50.258;19.062;2023-11-18T08:30:11;98794.09;;;3.22;95.36
53340;BME280;46212;50.258;19.062;2023-11-18T08:32:37;98793.06;;;3.02;95.42
53340;BME280;46212;50.258;19.062;2023-11-18T08:35:05;98794.28;;;2.94;95.89
53340;BME280;46212;50.258;19.062;2023-11-18T08:37:42;98798.94;;;2.97;95.43
53340;BME280;46212;50.258;19.062;2023-11-18T08:40:08;98793.50;;;2.93;95.09
53340;BME280;46212;50.258;19.062;2023-11-18T08:42:58;98790.47;;;2.81;94.32
53340;BME280;46212;50.258;19.062;2023-11-18T08:45:27;98800.66;;;2.69;95.74
53340;BME280;46212;50.258;19.062;2023-11-18T08:47:58;98792.91;;;2.64;95.89
53340;BME280;46212;50.258;19.062;2023-11-18T08:50:24;98801.84;;;2.68;96.41
53340;BME280;46212;50.258;19.062;2023-11-18T08:52:53;98809.63;;;2.66;96.63
53340;BME280;46212;50.258;19.062;2023-11-18T08:55:23;98820.53;;;2.70;97.02
53340;BME280;46212;50.258;19.062;2023-11-18T08:57:51;98814.75;;;2.54;96.79
53340;BME280;46212;50.258;19.062;2023-11-18T09:00:28;98821.34;;;2.63;97.50
53340;BME280;46212;50.258;19.062;2023-11-18T09:03:13;98816.28;;;2.69;97.68
53340;BME280;46212;50.258;19.062;2023-11-18T09:05:56;98827.09;;;2.83;97.40
53340;BME280;46212;50.258;19.062;2023-11-18T09:08:33;98838.78;;;2.84;96.56
53340;BME280;46212;50.258;19.062;2023-11-18T09:13:30;98840.34;;;2.85;95.93
53340;BME280;46212;50.258;19.062;2023-11-18T09:16:01;98848.91;;;2.80;95.82
53340;BME280;46212;50.258;19.062;2023-11-18T09:18:28;98851.72;;;2.65;96.18
53340;BME280;46212;50.258;19.062;2023-11-18T09:20:55;98848.22;;;2.61;96.73
53340;BME280;46212;50.258;19.062;2023-11-18T09:23:22;98854.91;;;2.53;97.16
53340;BME280;46212;50.258;19.062;2023-11-18T09:25:49;98859.56;;;2.56;97.27
53340;BME280;46212;50.258;19.062;2023-11-18T09:28:15;98859.59;;;2.49;95.66
53340;BME280;46212;50.258;19.062;2023-11-18T09:30:45;98858.00;;;2.59;94.78
53340;BME280;46212;50.258;19.062;2023-11-18T09:33:24;98869.28;;;2.57;95.05
53340;BME280;46212;50.258;19.062;2023-11-18T09:36:13;98870.84;;;2.58;94.90
53340;BME280;46212;50.258;19.062;2023-11-18T09:38:40;98879.44;;;2.53;95.38
53340;BME280;46212;50.258;19.062;2023-11-18T09:41:07;98879.00;;;2.58;95.96
53340;BME280;46212;50.258;19.062;2023-11-18T09:43:36;98887.97;;;2.66;96.77
53340;BME280;46212;50.258;19.062;2023-11-18T09:46:16;98895.34;;;2.69;95.57
53340;BME280;46212;50.258;19.062;2023-11-18T09:48:46;98899.50;;;2.95;94.13
53340;BME280;46212;50.258;19.062;2023-11-18T09:51:38;98891.84;;;2.68;94.80
53340;BME280;46212;50.258;19.062;2023-11-18T09:54:27;98890.13;;;2.99;94.06
53340;BME280;46212;50.258;19.062;2023-11-18T09:57:08;98901.81;;;3.00;89.96
53340;BME280;46212;50.258;19.062;2023-11-18T10:00:01;98915.50;;;2.89;89.19
53340;BME280;46212;50.258;19.062;2023-11-18T10:02:45;98915.13;;;2.87;90.05
53340;BME280;46212;50.258;19.062;2023-11-18T10:05:13;98916.34;;;2.76;89.60
53340;BME280;46212;50.258;19.062;2023-11-18T10:07:42;98913.63;;;2.76;89.08
53340;BME280;46212;50.258;19.062;2023-11-18T10:10:08;98924.50;;;2.79;90.08
53340;BME280;46212;50.258;19.062;2023-11-18T10:12:46;98919.09;;;2.72;89.67
53340;BME280;46212;50.258;19.062;2023-11-18T10:15:17;98914.81;;;2.67;90.40
53340;BME280;46212;50.258;19.062;2023-11-18T10:17:44;98921.03;;;2.79;90.19
53340;BME280;46212;50.258;19.062;2023-11-18T10:20:45;98913.66;;;2.68;89.74
53340;BME280;46212;50.258;19.062;2023-11-18T10:23:13;98910.91;;;2.68;90.20
53340;BME280;46212;50.258;19.062;2023-11-18T10:25:48;98921.47;;;2.63;91.48
53340;BME280;46212;50.258;19.062;2023-11-18T10:31:02;98937.38;;;2.75;90.99
53340;BME280;46212;50.258;19.062;2023-11-18T10:33:40;98926.06;;;2.84;90.67
53340;BME280;46212;50.258;19.062;2023-11-18T10:36:22;98928.34;;;2.89;89.81
53340;BME280;46212;50.258;19.062;2023-11-18T10:38:49;98933.47;;;2.76;90.41
53340;BME280;46212;50.258;19.062;2023-11-18T10:41:15;98944.03;;;2.63;91.70
53340;BME280;46212;50.258;19.062;2023-11-18T10:43:43;98935.50;;;2.58;91.89
53340;BME280;46212;50.258;19.062;2023-11-18T10:46:14;98940.91;;;2.68;91.45
53340;BME280;46212;50.258;19.062;2023-11-18T10:48:41;98954.09;;;2.84;89.02
53340;BME280;46212;50.258;19.062;2023-11-18T10:51:10;98959.56;;;2.88;87.13
53340;BME280;46212;50.258;19.062;2023-11-18T10:53:37;98948.31;;;2.75;87.47
53340;BME280;46212;50.258;19.062;2023-11-18T10:56:06;98970.47;;;2.81;85.53
53340;BME280;46212;50.258;19.062;2023-11-18T10:58:41;98970.50;;;2.70;85.13
53340;BME280;46212;50.258;19.062;2023-11-18T11:01:07;98972.88;;;2.57;85.35
53340;BME280;46212;50.258;19.062;2023-11-18T11:03:53;98990.44;;;2.53;85.37
53340;BME280;46212;50.258;19.062;2023-11-18T11:06:26;98991.22;;;2.39;85.53
53340;BME280;46212;50.258;19.062;2023-11-18T11:08:56;98990.44;;;2.53;85.97
53340;BME280;46212;50.258;19.062;2023-11-18T11:11:24;98993.94;;;2.46;85.75
53340;BME280;46212;50.258;19.062;2023-11-18T11:13:57;99006.78;;;2.49;85.42
53340;BME280;46212;50.258;19.062;2023-11-18T11:16:27;99005.63;;;2.47;85.74
53340;BME280;46212;50.258;19.062;2023-11-18T11:18:55;98997.41;;;2.54;85.86
53340;BME280;46212;50.258;19.062;2023-11-18T11:21:26;98998.97;;;2.58;85.40
53340;BME280;46212;50.258;19.062;2023-11-18T11:24:04;98999.38;;;2.53;85.21
53340;BME280;46212;50.258;19.062;2023-11-18T11:32:18;99001.72;;;2.55;86.51
53340;BME280;46212;50.258;19.062;2023-11-18T11:34:54;99009.09;;;2.58;86.14
53340;BME280;46212;50.258;19.062;2023-11-18T11:37:24;99013.81;;;2.47;85.89
53340;BME280;46212;50.258;19.062;2023-11-18T11:39:51;99006.41;;;2.47;85.46
53340;BME280;46212;50.258;19.062;2023-11-18T11:42:20;98998.25;;;2.44;85.05
53340;BME280;46212;50.258;19.062;2023-11-18T11:44:47;99018.09;;;2.27;85.69
53340;BME280;46212;50.258;19.062;2023-11-18T11:47:13;99009.13;;;2.19;86.49
53340;BME280;46212;50.258;19.062;2023-11-18T11:49:54;99009.53;;;2.21;86.62
53340;BME280;46212;50.258;19.062;2023-11-18T11:52:31;99008.34;;;2.26;86.88
53340;BME280;46212;50.258;19.062;2023-11-18T11:55:10;99013.03;;;2.32;86.72
53340;BME280;46212;50.258;19.062;2023-11-18T11:57:41;99024.72;;;2.26;86.67
53340;BME280;46212;50.258;19.062;2023-11-18T12:00:11;99029.78;;;2.24;86.65
53340;BME280;46212;50.258;19.062;2023-11-18T12:02:50;99030.94;;;2.23;87.69
53340;BME280;46212;50.258;19.062;2023-11-18T12:05:29;99048.84;;;2.45;87.18
53340;BME280;46212;50.258;19.062;2023-11-18T12:07:59;99037.97;;;2.34;86.96
53340;BME280;46212;50.258;19.062;2023-11-18T12:10:30;99049.25;;;2.40;87.08
53340;BME280;46212;50.258;19.062;2023-11-18T12:13:09;99046.50;;;2.50;86.55
53340;BME280;46212;50.258;19.062;2023-11-18T12:18:29;99052.75;;;2.40;87.11
53340;BME280;46212;50.258;19.062;2023-11-18T12:20:57;99055.84;;;2.39;87.45
53340;BME280;46212;50.258;19.062;2023-11-18T12:23:23;99046.91;;;2.31;87.67
53340;BME280;46212;50.258;19.062;2023-11-18T12:25:53;99061.31;;;2.35;86.90
53340;BME280;46212;50.258;19.062;2023-11-18T12:28:27;99064.44;;;2.37;86.05
53340;BME280;46212;50.258;19.062;2023-11-18T12:30:54;99046.13;;;2.27;86.11
53340;BME280;46212;50.258;19.062;2023-11-18T12:33:27;99066.75;;;2.39;86.32
53340;BME280;46212;50.258;19.062;2023-11-18T12:42:07;99076.09;;;2.48;86.99
53340;BME280;46212;50.258;19.062;2023-11-18T12:47:42;99085.84;;;2.42;86.56
53340;BME280;46212;50.258;19.062;2023-11-18T12:50:10;99084.28;;;2.38;86.76
53340;BME280;46212;50.258;19.062;2023-11-18T12:52:44;99070.66;;;2.24;86.76
53340;BME280;46212;50.258;19.062;2023-11-18T12:55:11;99074.53;;;2.19;86.98
53340;BME280;46212;50.258;19.062;2023-11-18T12:57:46;99064.81;;;2.14;87.54
53340;BME280;46212;50.258;19.062;2023-11-18T13:00:13;99089.72;;;2.24;87.86
53340;BME280;46212;50.258;19.062;2023-11-18T13:02:42;99087.38;;;2.26;88.23
53340;BME280;46212;50.258;19.062;2023-11-18T13:05:08;99088.56;;;2.32;87.99
53340;BME280;46212;50.258;19.062;2023-11-18T13:07:38;99090.53;;;2.31;87.79
53340;BME280;46212;50.258;19.062;2023-11-18T13:10:05;99087.38;;;2.22;88.52
53340;BME280;46212;50.258;19.062;2023-11-18T13:12:30;99087.78;;;2.28;88.49
53340;BME280;46212;50.258;19.062;2023-11-18T13:14:56;99093.59;;;2.19;88.53
53340;BME280;46212;50.258;19.062;2023-11-18T13:17:22;99101.38;;;2.10;89.06
53340;BME280;46212;50.258;19.062;2023-11-18T13:19:47;99107.63;;;2.18;89.36
53340;BME280;46212;50.258;19.062;2023-11-18T13:22:16;99096.69;;;2.03;89.48
53340;BME280;46212;50.258;19.062;2023-11-18T13:24:44;99102.97;;;2.18;89.20
53340;BME280;46212;50.258;19.062;2023-11-18T13:27:13;99118.53;;;2.25;89.06
53340;BME280;46212;50.258;19.062;2023-11-18T13:29:43;99128.66;;;2.24;88.88
53340;BME280;46212;50.258;19.062;2023-11-18T13:32:11;99129.03;;;2.16;88.81
53340;BME280;46212;50.258;19.062;2023-11-18T13:34:39;99121.22;;;2.03;89.19